Horseneck Beach, Massachusetts
Current Conditions -  °F | °C
As of 8:53 PM on Thursday 20 Nov 2014 (Local Time) from KEWB Reporting Station
Clear Clear  
Wind Chill: 33°   Ceiling: Unl
Heat Index: 39°   Visibility: 10mi
Dew Point: 19°   Wind: 9mph
Humidity: 45%   Direction: 260°W
Pressure: 29.87"   Gusts: NA
Location:  41.6022°N, 71.0828°W
Report Text: KEWB 210153Z 26008KT 10SM CLR 04/M07 A2987 RMK AO2 SLP116 T00391072
Loading
Personal Weather Stations






























Interactive Weather Map New forecast layout! Learn more

10-Day Weather Forecast

Advertisements
Track Severe Weather on mobile